createdAt,value
2022-11-12T02:05:26.991Z,99140.78
2022-11-12T02:15:46.962Z,99136.91
2022-11-12T02:26:06.760Z,99134.91
2022-11-12T02:36:27.987Z,99145.41
2022-11-12T02:46:47.997Z,99147.03
2022-11-12T02:57:08.081Z,99142.78
2022-11-12T03:07:27.932Z,99152.47
2022-11-12T03:17:48.059Z,99163.41
2022-11-12T03:28:11.462Z,99171.28
2022-11-12T03:38:31.437Z,99175.72
2022-11-12T03:48:51.244Z,99170.44
2022-11-12T03:59:11.189Z,99164.78
2022-11-12T04:09:31.209Z,99154.91
2022-11-12T04:20:20.296Z,99151.44
2022-11-12T04:30:40.243Z,99158.63
2022-11-12T04:41:19.166Z,99163.44
2022-11-12T04:51:57.951Z,99163.19
2022-11-12T05:02:18.368Z,99151.94
2022-11-12T05:12:38.479Z,99156.31
2022-11-12T05:23:06.679Z,99157.19
2022-11-12T05:33:27.763Z,99165.25
2022-11-12T05:43:47.659Z,99156.31
2022-11-12T05:54:07.588Z,99161.56
2022-11-12T06:04:27.841Z,99168.66
2022-11-12T06:14:48.000Z,99174.09
2022-11-12T06:25:08.099Z,99187.59
2022-11-12T06:35:28.272Z,99201.31
2022-11-12T06:45:48.349Z,99200.84
2022-11-12T06:56:08.455Z,99193.38
2022-11-12T07:06:28.660Z,99204.97
2022-11-12T07:16:49.689Z,99198.19
2022-11-12T07:27:09.571Z,99201.00
2022-11-12T07:37:29.514Z,99193.97
2022-11-12T07:47:49.397Z,99189.97
2022-11-12T07:58:09.424Z,99182.88
2022-11-12T08:08:29.726Z,99188.88
2022-11-12T08:18:50.307Z,99198.22
2022-11-12T08:29:10.277Z,99196.16
2022-11-12T08:39:30.207Z,99195.47
2022-11-12T08:49:50.266Z,99210.91
2022-11-12T09:00:11.930Z,99204.53
2022-11-12T09:10:32.627Z,99219.47
2022-11-12T09:20:52.440Z,99217.97
2022-11-12T09:31:12.369Z,99223.06
2022-11-12T09:41:36.401Z,99215.88
2022-11-12T09:52:04.726Z,99223.84
2022-11-12T10:02:39.384Z,99222.44
2022-11-12T10:13:28.784Z,99207.25
2022-11-12T10:23:52.154Z,99196.97
2022-11-12T10:34:20.731Z,99178.06
2022-11-12T10:44:43.182Z,99167.16
2022-11-12T10:55:17.906Z,99154.81
2022-11-12T11:05:54.195Z,99151.16
2022-11-12T11:16:17.461Z,99146.13
2022-11-12T11:26:55.577Z,99137.81
2022-11-12T11:37:27.905Z,99133.97
2022-11-12T11:48:01.805Z,99112.28
2022-11-12T11:58:40.579Z,99102.44
2022-11-12T12:09:28.422Z,99106.81
2022-11-12T12:20:02.577Z,99097.38
2022-11-12T12:30:24.989Z,99104.81
2022-11-12T12:40:54.099Z,99098.44
2022-11-12T12:51:14.155Z,99085.63
2022-11-12T13:01:36.432Z,99078.78
2022-11-12T13:12:05.659Z,99077.28
2022-11-12T13:22:25.560Z,99067.34
2022-11-12T13:32:48.557Z,99057.19
2022-11-12T13:43:21.890Z,99056.38
2022-11-12T13:53:42.088Z,99034.34
2022-11-12T14:04:02.303Z,99029.88
2022-11-12T14:14:25.079Z,99020.66
2022-11-12T14:24:48.069Z,99024.34
2022-11-12T14:35:20.499Z,99018.47
2022-11-12T14:45:48.711Z,99003.16
2022-11-12T14:56:16.418Z,98996.88
2022-11-12T15:06:37.342Z,98979.88
2022-11-12T15:17:00.507Z,98976.63
2022-11-12T15:27:38.870Z,98965.63
2022-11-12T15:38:03.274Z,98959.47
2022-11-12T15:48:23.366Z,98961.88
2022-11-12T15:58:44.025Z,98963.06
2022-11-12T16:09:04.074Z,98955.78
2022-11-12T16:19:23.954Z,98953.50
2022-11-12T16:29:43.893Z,98959.38
2022-11-12T16:40:05.740Z,98961.34
2022-11-12T16:50:27.926Z,98955.34
2022-11-12T17:00:50.217Z,98963.63
2022-11-12T17:11:10.454Z,98959.91
2022-11-12T17:21:30.541Z,98942.38
2022-11-12T17:31:50.631Z,98950.69
2022-11-12T17:42:10.464Z,98937.50
2022-11-12T17:52:31.699Z,98935.09
2022-11-12T18:02:51.968Z,98919.72
2022-11-12T18:13:11.745Z,98919.72
2022-11-12T18:23:31.714Z,98916.44
2022-11-12T18:33:52.288Z,98906.47
2022-11-12T18:44:12.598Z,98905.63
2022-11-12T18:54:32.762Z,98901.16
2022-11-12T19:04:53.455Z,98897.41
2022-11-12T19:15:13.752Z,98882.78
2022-11-12T19:25:37.012Z,98886.31
2022-11-12T19:35:56.848Z,98878.91
2022-11-12T19:46:17.921Z,98860.81
2022-11-12T19:56:37.864Z,98849.97
2022-11-12T20:06:57.688Z,98859.56
2022-11-12T20:17:18.089Z,98850.38
2022-11-12T20:27:38.061Z,98829.22
2022-11-12T20:37:57.804Z,98841.19
2022-11-12T20:48:17.950Z,98833.53
2022-11-12T20:58:38.509Z,98837.56
2022-11-12T21:08:59.859Z,98830.09
2022-11-12T21:19:19.942Z,98805.25
2022-11-12T21:29:40.457Z,98800.81
2022-11-12T21:40:00.507Z,98798.78
2022-11-12T21:50:20.461Z,98777.59
2022-11-12T22:00:42.325Z,98782.81
2022-11-12T22:11:09.585Z,98779.81
2022-11-12T22:21:36.799Z,98787.28
2022-11-12T22:31:59.361Z,98771.94
2022-11-12T22:42:19.532Z,98767.66
2022-11-12T22:52:40.010Z,98763.66
2022-11-12T23:02:59.831Z,98752.34
2022-11-12T23:13:19.777Z,98753.56
2022-11-12T23:23:39.960Z,98742.25
2022-11-12T23:34:00.267Z,98731.53
2022-11-12T23:44:20.355Z,98721.44
2022-11-12T23:54:40.180Z,98713.59
